SBFZ/FOR METAR and TAF weather

Enter ICAO airport designator
Station Type Date Time Source
SBFZ METAR 2019/05/19 21:00 UTC NOAA

SBFZ 192100Z 15006KT 9999 FEW010 BKN020 BKN070 25/24 Q1011


Station Type Date Time Source
SBFZ Decoded METAR 2019/05/19 21:00 UTC NOAA

Fortaleza / pinto Martins , Brazil (SBFZ) 03-47S 038-32W 25M
May 19, 2019 - 05:00 PM EDT / 2019.05.19 2100 UTC
Wind: from the SSE (150 degrees) at 7 MPH (6 KT):0
Visibility: greater than 7 mile(s):0
Sky conditions: mostly cloudy
Temperature: 77 F (25 C)
Dew Point: 75 F (24 C)
Relative Humidity: 94%
Pressure (altimeter): 29.85 in. Hg (1011 hPa)
ob: SBFZ 192100Z 15006KT 9999 FEW010 BKN020 BKN070 25/24 Q1011
cycle: 21

Station Type Date Time Source
SBFZ TAF 2019/05/19 18:22 UTC NOAA

TAF SBFZ 191600Z 1918/2018 08010KT 9999 SCT025 TN26/2006Z TX31/2015Z
BECMG 1923/2001 FEW020
BECMG 2004/2005 17004KT SCT020
BECMG 2011/2013 SCT0 22 FEW030TCU
RMK PEC

Example: see airport list